Time;durP1;ratioP1;P1;durP2;ratioP2;P2;SDS_P1;SDS_P2;PMS_P1;PMS_P2;Temp;Humidity;BMP_temperature;BMP_pressure;BME280_temperature;BME280_humidity;BME280_pressure;Samples;Min_cycle;Max_cycle;Signal;HPM_P1;HPM_P2
2021/07/09 00:02:52;;;;;;;12.13;8.07;;;16.40;99.90;;;;;;4373334;32;20500;-61
2021/07/09 00:05:19;;;;;;;12.20;8.20;;;16.30;99.90;;;;;;4375999;32;20141;-62
2021/07/09 00:07:46;;;;;;;12.27;8.23;;;16.30;99.90;;;;;;4376744;32;20513;-61
2021/07/09 00:10:13;;;;;;;11.20;8.77;;;16.30;99.90;;;;;;4375531;32;20137;-61
2021/07/09 00:12:40;;;;;;;11.13;9.07;;;16.20;99.90;;;;;;4373739;32;20198;-61
2021/07/09 00:15:08;;;;;;;12.80;10.00;;;16.20;99.90;;;;;;4375372;32;20223;-62
2021/07/09 00:17:37;;;;;;;15.40;9.87;;;16.10;99.90;;;;;;4375695;32;20136;-61
2021/07/09 00:20:05;;;;;;;14.17;10.03;;;16.10;99.90;;;;;;4376891;32;20145;-62
2021/07/09 00:22:32;;;;;;;15.27;9.57;;;16.00;99.90;;;;;;4366256;32;20136;-61
2021/07/09 00:24:59;;;;;;;12.07;8.57;;;16.00;99.90;;;;;;4375630;32;20568;-61
2021/07/09 00:27:27;;;;;;;13.27;8.80;;;16.00;99.90;;;;;;4375849;32;20133;-60
2021/07/09 00:29:54;;;;;;;14.03;8.70;;;16.00;99.90;;;;;;4375135;32;20171;-61
2021/07/09 00:32:23;;;;;;;11.07;7.83;;;15.90;99.90;;;;;;4368085;32;20148;-61
2021/07/09 00:34:52;;;;;;;9.63;8.03;;;15.90;99.90;;;;;;4360563;32;20156;-61
2021/07/09 00:37:18;;;;;;;13.37;8.73;;;15.80;99.90;;;;;;4369389;32;20148;-62
2021/07/09 00:39:45;;;;;;;10.70;8.40;;;15.70;99.90;;;;;;4376000;32;20540;-62
2021/07/09 00:42:12;;;;;;;11.63;8.57;;;15.70;99.90;;;;;;4370448;32;20160;-62
2021/07/09 00:44:39;;;;;;;11.17;8.57;;;15.70;99.90;;;;;;4369626;32;20196;-61
2021/07/09 00:47:11;;;;;;;13.83;8.60;;;15.60;99.90;;;;;;4375174;32;20572;-61
2021/07/09 00:49:38;;;;;;;13.80;8.80;;;15.60;99.90;;;;;;4374773;32;20159;-62
2021/07/09 00:52:09;;;;;;;15.03;9.30;;;15.50;99.90;;;;;;4373498;32;20179;-62
2021/07/09 00:54:36;;;;;;;12.00;9.50;;;15.50;99.90;;;;;;4376043;32;20167;-63
2021/07/09 00:57:04;;;;;;;12.97;9.47;;;15.50;99.90;;;;;;4379059;32;20561;-62
2021/07/09 00:59:31;;;;;;;10.77;9.03;;;15.40;99.90;;;;;;4378282;32;20152;-62
2021/07/09 01:01:59;;;;;;;12.40;9.27;;;15.40;99.90;;;;;;4376665;32;20149;-62
2021/07/09 01:04:26;;;;;;;11.97;9.47;;;15.30;99.90;;;;;;4367782;32;20152;-62
2021/07/09 01:06:53;;;;;;;11.13;8.67;;;15.30;99.90;;;;;;4377740;32;20450;-62
2021/07/09 01:09:22;;;;;;;12.50;9.00;;;15.30;99.90;;;;;;4378173;32;20194;-63
2021/07/09 01:11:51;;;;;;;13.13;8.37;;;15.20;99.90;;;;;;4379454;32;20155;-63
2021/07/09 01:14:18;;;;;;;10.83;8.47;;;15.20;99.90;;;;;;4375932;32;20144;-62
2021/07/09 01:16:46;;;;;;;11.47;8.37;;;15.20;99.90;;;;;;4379551;32;20168;-63
2021/07/09 01:19:15;;;;;;;10.27;8.13;;;15.20;99.90;;;;;;4377971;32;20171;-62
2021/07/09 01:21:43;;;;;;;13.13;8.60;;;15.20;99.90;;;;;;4378319;32;20132;-63
2021/07/09 01:24:11;;;;;;;9.67;8.60;;;15.10;99.90;;;;;;4375916;32;20160;-62
2021/07/09 01:26:40;;;;;;;13.27;8.50;;;15.10;99.90;;;;;;4378181;32;20136;-62
2021/07/09 01:29:08;;;;;;;9.60;7.77;;;15.10;99.90;;;;;;4377705;32;20152;-63
2021/07/09 01:31:36;;;;;;;9.03;7.70;;;15.00;99.90;;;;;;4377175;32;20140;-60
2021/07/09 01:34:04;;;;;;;10.00;8.13;;;15.00;99.90;;;;;;4369799;32;20153;-63
2021/07/09 01:36:32;;;;;;;10.33;7.80;;;14.90;99.90;;;;;;4364900;32;20198;-60
2021/07/09 01:38:59;;;;;;;10.57;8.43;;;15.00;99.90;;;;;;4378004;32;20167;-62
2021/07/09 01:41:28;;;;;;;12.07;9.20;;;15.00;99.90;;;;;;4379144;32;20170;-60
2021/07/09 01:43:56;;;;;;;9.13;8.23;;;15.00;99.90;;;;;;4375629;32;20306;-62
2021/07/09 01:46:23;;;;;;;10.23;8.33;;;14.90;99.90;;;;;;4378122;32;20198;-62
2021/07/09 01:48:50;;;;;;;12.43;9.53;;;14.90;99.90;;;;;;4378181;32;20160;-61
2021/07/09 01:51:17;;;;;;;13.07;8.97;;;14.90;99.90;;;;;;4377790;32;20545;-62
2021/07/09 01:53:44;;;;;;;12.20;8.80;;;14.90;99.90;;;;;;4375210;32;20492;-61
2021/07/09 01:56:11;;;;;;;12.67;7.97;;;14.80;99.90;;;;;;4377700;32;20137;-62
2021/07/09 01:58:40;;;;;;;12.37;9.10;;;14.80;99.90;;;;;;4377571;32;20140;-62
2021/07/09 02:01:07;;;;;;;15.33;9.50;;;14.80;99.90;;;;;;4376992;32;20210;-62
2021/07/09 02:03:34;;;;;;;12.80;9.00;;;14.80;99.90;;;;;;4377030;32;20180;-61
2021/07/09 02:06:02;;;;;;;11.60;8.97;;;14.70;99.90;;;;;;4376172;32;20159;-62
2021/07/09 02:08:29;;;;;;;17.30;11.50;;;14.70;99.90;;;;;;4377970;32;20158;-62
2021/07/09 02:10:56;;;;;;;17.30;11.13;;;14.70;99.90;;;;;;4375369;32;20171;-61
2021/07/09 02:13:23;;;;;;;17.70;11.33;;;14.70;99.90;;;;;;4376849;32;20152;-62
2021/07/09 02:15:51;;;;;;;16.17;11.70;;;14.70;99.90;;;;;;4367874;32;20128;-61
2021/07/09 02:18:18;;;;;;;15.17;11.73;;;14.70;99.90;;;;;;4362762;32;20133;-61
2021/07/09 02:20:45;;;;;;;16.87;11.80;;;14.60;99.90;;;;;;4373508;32;20555;-61
2021/07/09 02:23:16;;;;;;;22.67;11.47;;;14.60;99.90;;;;;;4377925;32;20145;-62
2021/07/09 02:25:44;;;;;;;15.33;11.23;;;14.60;99.90;;;;;;4365979;32;20138;-61
2021/07/09 02:28:10;;;;;;;16.77;10.83;;;14.60;99.90;;;;;;4364416;32;20157;-62
2021/07/09 02:30:38;;;;;;;14.60;10.80;;;14.60;99.90;;;;;;4362408;33;20186;-63
2021/07/09 02:33:07;;;;;;;15.87;11.67;;;14.50;99.90;;;;;;4373350;32;20191;-62
2021/07/09 02:35:38;;;;;;;15.60;11.63;;;14.50;99.90;;;;;;4370134;32;20175;-62
2021/07/09 02:38:06;;;;;;;17.67;12.37;;;14.50;99.90;;;;;;4373125;32;20576;-62
2021/07/09 02:40:34;;;;;;;17.83;12.47;;;14.50;99.90;;;;;;4376822;32;20170;-63
2021/07/09 02:43:04;;;;;;;21.23;12.70;;;14.40;99.90;;;;;;4377072;32;20176;-61
2021/07/09 02:45:31;;;;;;;18.43;12.23;;;14.40;99.90;;;;;;4375121;32;20181;-61
2021/07/09 02:47:58;;;;;;;16.10;11.83;;;14.40;99.90;;;;;;4376724;32;20166;-61
2021/07/09 02:50:26;;;;;;;19.43;12.73;;;14.40;99.90;;;;;;4378627;32;20140;-61
2021/07/09 02:52:53;;;;;;;16.40;12.17;;;14.30;99.90;;;;;;4376942;32;20153;-62
2021/07/09 02:55:22;;;;;;;18.03;12.23;;;14.30;99.90;;;;;;4373965;32;20153;-62
2021/07/09 02:57:49;;;;;;;17.17;11.50;;;14.30;99.90;;;;;;4370229;32;20187;-61
2021/07/09 03:00:17;;;;;;;18.03;11.23;;;14.30;99.90;;;;;;4376983;32;20144;-62
2021/07/09 03:02:45;;;;;;;16.67;12.27;;;14.30;99.90;;;;;;4376764;32;20172;-62
2021/07/09 03:05:12;;;;;;;20.57;12.93;;;14.20;99.90;;;;;;4375737;32;20628;-62
2021/07/09 03:07:41;;;;;;;17.40;11.53;;;14.20;99.90;;;;;;4361774;33;20136;-62
2021/07/09 03:10:10;;;;;;;20.90;12.27;;;14.20;99.90;;;;;;4362362;32;20133;-62
2021/07/09 03:12:39;;;;;;;16.83;12.40;;;14.20;99.90;;;;;;4377351;32;20137;-63
2021/07/09 03:15:07;;;;;;;20.00;13.10;;;14.10;99.90;;;;;;4376387;32;20159;-62
2021/07/09 03:17:34;;;;;;;17.47;11.43;;;14.10;99.90;;;;;;4374900;32;20148;-62
2021/07/09 03:20:01;;;;;;;18.00;12.73;;;14.10;99.90;;;;;;4375579;32;20202;-63
2021/07/09 03:22:28;;;;;;;20.10;12.13;;;14.10;99.90;;;;;;4376252;32;20168;-61
2021/07/09 03:24:59;;;;;;;16.37;11.23;;;14.10;99.90;;;;;;4376250;32;20141;-62
2021/07/09 03:27:26;;;;;;;17.37;12.70;;;14.00;99.90;;;;;;4364957;32;20144;-62
2021/07/09 03:29:53;;;;;;;20.47;12.90;;;14.00;99.90;;;;;;4369386;32;20156;-62
2021/07/09 03:32:23;;;;;;;18.30;10.80;;;14.00;99.90;;;;;;4377604;32;20156;-61
2021/07/09 03:34:49;;;;;;;17.67;11.83;;;14.10;99.90;;;;;;4375648;32;20148;-61
2021/07/09 03:37:16;;;;;;;18.13;11.97;;;14.00;99.90;;;;;;4374088;32;20140;-61
2021/07/09 03:39:44;;;;;;;14.43;11.73;;;14.00;99.90;;;;;;4376000;32;20170;-62
2021/07/09 03:42:13;;;;;;;19.33;12.37;;;14.00;99.90;;;;;;4377451;32;20233;-61
2021/07/09 03:44:39;;;;;;;15.23;11.13;;;14.00;99.90;;;;;;4376198;32;20187;-62
2021/07/09 03:47:06;;;;;;;18.13;12.80;;;14.00;99.90;;;;;;4369465;32;20157;-62
2021/07/09 03:49:33;;;;;;;16.47;12.07;;;14.00;99.90;;;;;;4361201;33;20156;-61
2021/07/09 03:52:00;;;;;;;18.50;12.03;;;13.90;99.90;;;;;;4375589;32;20171;-61
2021/07/09 03:54:27;;;;;;;18.57;11.33;;;13.90;99.90;;;;;;4375999;32;20153;-62
2021/07/09 03:56:54;;;;;;;14.13;10.73;;;13.90;99.90;;;;;;4372814;32;20155;-62
2021/07/09 03:59:22;;;;;;;15.53;10.27;;;14.00;99.90;;;;;;4296257;32;2481529;-62
2021/07/09 04:01:49;;;;;;;15.03;10.97;;;14.00;99.90;;;;;;4374973;32;20160;-61
2021/07/09 04:04:16;;;;;;;16.27;10.47;;;14.00;99.90;;;;;;4375932;32;20156;-61
2021/07/09 04:06:43;;;;;;;14.80;11.23;;;14.00;99.90;;;;;;4374253;32;20234;-62
2021/07/09 04:09:17;;;;;;;15.10;10.73;;;14.00;99.90;;;;;;4376396;32;20171;-62
2021/07/09 04:11:44;;;;;;;13.87;10.07;;;14.00;99.90;;;;;;4375682;32;20159;-62
2021/07/09 04:14:11;;;;;;;15.30;10.50;;;14.00;99.90;;;;;;4375277;32;20646;-62
2021/07/09 04:16:39;;;;;;;14.70;10.67;;;14.10;99.90;;;;;;4375774;32;20175;-62
2021/07/09 04:19:06;;;;;;;15.67;9.70;;;14.20;99.90;;;;;;4366064;32;20194;-62
2021/07/09 04:21:33;;;;;;;15.47;11.20;;;14.20;99.90;;;;;;4368982;32;20183;-62
2021/07/09 04:24:02;;;;;;;16.10;10.77;;;14.20;99.90;;;;;;4376230;32;20191;-62
2021/07/09 04:26:29;;;;;;;16.97;11.40;;;14.30;99.90;;;;;;4375380;32;20160;-62
2021/07/09 04:28:56;;;;;;;15.87;11.40;;;14.40;99.90;;;;;;4363135;32;20167;-63
2021/07/09 04:31:23;;;;;;;14.03;10.93;;;14.50;99.90;;;;;;4368184;32;20157;-61
2021/07/09 04:33:51;;;;;;;16.47;11.20;;;14.60;99.90;;;;;;4375557;32;20184;-62
2021/07/09 04:36:18;;;;;;;15.47;11.80;;;14.70;99.90;;;;;;4375171;32;20489;-63
2021/07/09 04:38:47;;;;;;;15.43;11.83;;;14.80;99.90;;;;;;4369512;32;20152;-62
2021/07/09 04:41:14;;;;;;;17.07;10.87;;;14.90;99.90;;;;;;4375280;32;20157;-60
2021/07/09 04:43:41;;;;;;;14.33;10.63;;;14.90;99.90;;;;;;4390184;32;20148;-62
2021/07/09 04:46:08;;;;;;;15.50;10.87;;;15.00;99.90;;;;;;4375722;32;20167;-62
2021/07/09 04:48:36;;;;;;;17.47;11.97;;;15.20;99.90;;;;;;4373040;32;20186;-62
2021/07/09 04:51:07;;;;;;;14.60;9.97;;;15.30;99.90;;;;;;4376267;32;20149;-61
2021/07/09 04:53:34;;;;;;;19.27;13.10;;;15.50;99.90;;;;;;4374713;32;20164;-62
2021/07/09 04:56:01;;;;;;;15.43;11.40;;;15.70;99.90;;;;;;4377025;32;20149;-62
2021/07/09 04:58:28;;;;;;;20.27;13.37;;;15.80;99.90;;;;;;4373979;32;20186;-61
2021/07/09 05:00:55;;;;;;;16.70;11.83;;;15.90;99.90;;;;;;4375672;32;20153;-61
2021/07/09 05:03:22;;;;;;;14.27;10.90;;;16.10;99.90;;;;;;4374718;32;20211;-61
2021/07/09 05:05:49;;;;;;;15.17;11.40;;;16.10;99.90;;;;;;4375469;32;20553;-62
2021/07/09 05:08:17;;;;;;;15.87;11.10;;;16.20;99.90;;;;;;4373665;32;20214;-61
2021/07/09 05:10:44;;;;;;;16.07;11.70;;;16.30;99.90;;;;;;4374231;32;20157;-62
2021/07/09 05:13:11;;;;;;;14.20;11.37;;;16.50;99.90;;;;;;4374598;32;20585;-63
2021/07/09 05:15:38;;;;;;;15.43;11.83;;;16.70;99.90;;;;;;4374738;32;20156;-61
2021/07/09 05:18:06;;;;;;;16.60;11.27;;;16.80;99.90;;;;;;4374417;32;20167;-63
2021/07/09 05:20:33;;;;;;;15.80;11.80;;;16.80;99.90;;;;;;4370160;32;20203;-63
2021/07/09 05:23:02;;;;;;;19.00;14.20;;;16.90;99.90;;;;;;4359476;32;20964;-63
2021/07/09 05:25:31;;;;;;;18.77;13.30;;;17.00;99.90;;;;;;4358929;32;20271;-61
2021/07/09 05:28:05;;;;;;;16.97;12.77;;;17.40;99.90;;;;;;4361959;32;20294;-62
2021/07/09 05:30:35;;;;;;;19.30;13.00;;;18.60;99.90;;;;;;4359828;32;20265;-60
2021/07/09 05:33:02;;;;;;;14.13;10.67;;;21.50;99.90;;;;;;4359147;32;20401;-63
2021/07/09 05:35:29;;;;;;;16.53;12.53;;;25.10;99.90;;;;;;4362283;32;20587;-65
2021/07/09 05:37:56;;;;;;;12.00;10.47;;;28.20;97.30;;;;;;4364059;32;20623;-64
2021/07/09 05:40:23;;;;;;;16.30;11.97;;;30.40;92.70;;;;;;4365825;32;20530;-61
2021/07/09 05:42:51;;;;;;;14.45;11.15;;;31.90;85.80;;;;;;4377554;32;20585;-64
2021/07/09 05:45:18;;;;;;;13.45;11.40;;;32.80;79.70;;;;;;4375835;32;20176;-64
2021/07/09 05:47:45;;;;;;;12.63;10.23;;;33.80;75.40;;;;;;4376621;32;20184;-63
2021/07/09 05:50:12;;;;;;;15.00;11.60;;;34.80;70.90;;;;;;4376026;32;20193;-65
2021/07/09 05:52:39;;;;;;;12.93;10.93;;;35.00;65.40;;;;;;4376477;32;20164;-65
2021/07/09 05:55:06;;;;;;;16.45;11.88;;;34.10;63.70;;;;;;4376618;32;20552;-63
2021/07/09 05:57:33;;;;;;;15.00;12.57;;;31.80;67.50;;;;;;4375394;32;20470;-63
2021/07/09 06:00:06;;;;;;;17.08;12.37;;;28.80;74.10;;;;;;4375947;32;20177;-64
2021/07/09 06:02:33;;;;;;;22.50;12.73;;;26.30;82.70;;;;;;4375115;32;20144;-63
2021/07/09 06:05:00;;;;;;;17.83;13.97;;;24.50;89.80;;;;;;4375861;32;20144;-63
2021/07/09 06:07:27;;;;;;;13.20;11.27;;;23.70;93.20;;;;;;4375806;32;20180;-64
2021/07/09 06:09:54;;;;;;;17.83;12.97;;;22.90;96.10;;;;;;4373831;32;20180;-61
2021/07/09 06:12:21;;;;;;;15.67;12.20;;;22.20;98.20;;;;;;4376275;32;20198;-61
2021/07/09 06:14:48;;;;;;;17.77;11.50;;;21.70;99.90;;;;;;4376192;32;20199;-65
2021/07/09 06:17:16;;;;;;;15.73;11.53;;;21.40;99.90;;;;;;4377586;32;20179;-62
2021/07/09 06:19:43;;;;;;;14.53;11.73;;;21.20;99.90;;;;;;4375729;32;20284;-63
2021/07/09 06:22:10;;;;;;;20.07;13.00;;;20.90;99.90;;;;;;4376388;32;20207;-63
2021/07/09 06:24:37;;;;;;;19.13;12.97;;;20.80;99.90;;;;;;4376127;32;20580;-64
2021/07/09 06:27:05;;;;;;;14.20;12.07;;;20.70;99.90;;;;;;4376623;32;20192;-63
2021/07/09 06:29:32;;;;;;;15.93;11.47;;;20.40;99.90;;;;;;4377064;32;20228;-64
2021/07/09 06:31:59;;;;;;;16.07;12.37;;;20.30;99.90;;;;;;4376339;32;20172;-64
2021/07/09 06:34:30;;;;;;;19.20;12.70;;;20.20;99.90;;;;;;4376095;32;20648;-65
2021/07/09 06:36:57;;;;;;;21.03;12.10;;;20.20;99.90;;;;;;4376524;32;20206;-63
2021/07/09 06:39:25;;;;;;;13.37;10.77;;;20.20;99.90;;;;;;4376203;32;20165;-63
2021/07/09 06:41:52;;;;;;;12.27;10.47;;;20.20;99.90;;;;;;4375760;32;20582;-61
2021/07/09 06:44:19;;;;;;;11.03;9.37;;;20.00;99.90;;;;;;4376170;32;20178;-64
2021/07/09 06:46:46;;;;;;;13.17;9.70;;;19.90;99.90;;;;;;4376139;32;20156;-62
2021/07/09 06:49:13;;;;;;;12.67;8.90;;;20.00;99.90;;;;;;4375506;32;20241;-61
2021/07/09 06:51:41;;;;;;;12.87;7.57;;;19.90;99.90;;;;;;4375386;32;20446;-63
2021/07/09 06:54:08;;;;;;;13.47;8.93;;;19.90;99.90;;;;;;4376117;32;20190;-62
2021/07/09 06:56:35;;;;;;;9.50;8.13;;;20.00;99.90;;;;;;4376392;32;20465;-61
2021/07/09 06:59:02;;;;;;;15.40;9.47;;;19.90;99.90;;;;;;4375837;32;20200;-63
2021/07/09 07:01:29;;;;;;;12.87;9.43;;;20.00;99.90;;;;;;4375564;32;20628;-63
2021/07/09 07:03:58;;;;;;;11.60;8.83;;;20.10;99.90;;;;;;4375426;32;20215;-64
2021/07/09 07:06:25;;;;;;;16.80;10.57;;;20.20;99.90;;;;;;4376204;32;20588;-64
2021/07/09 07:08:53;;;;;;;14.73;11.17;;;20.00;99.90;;;;;;4375634;32;20175;-63
2021/07/09 07:11:19;;;;;;;10.70;8.77;;;20.00;99.90;;;;;;4374361;32;20173;-62
2021/07/09 07:13:46;;;;;;;13.20;9.20;;;20.20;99.90;;;;;;4375458;32;20187;-61
2021/07/09 07:16:13;;;;;;;16.00;9.87;;;20.30;99.90;;;;;;4374855;32;20179;-62
2021/07/09 07:18:40;;;;;;;13.93;9.37;;;20.30;99.90;;;;;;4375782;32;20174;-62
2021/07/09 07:21:07;;;;;;;10.70;8.07;;;20.30;99.90;;;;;;4375462;32;20152;-62
2021/07/09 07:23:34;;;;;;;11.30;8.53;;;20.30;99.90;;;;;;4375587;32;20176;-62
2021/07/09 07:26:02;;;;;;;11.27;9.10;;;20.40;99.90;;;;;;4375758;32;20236;-62
2021/07/09 07:28:29;;;;;;;9.37;7.63;;;20.40;99.90;;;;;;4375267;32;20179;-65
2021/07/09 07:30:56;;;;;;;14.23;8.63;;;20.70;99.90;;;;;;4375170;32;20513;-65
2021/07/09 07:33:23;;;;;;;8.97;7.97;;;20.80;99.90;;;;;;4373855;32;20152;-61
2021/07/09 07:35:50;;;;;;;9.47;6.77;;;20.90;99.90;;;;;;4374980;32;20160;-61
2021/07/09 07:38:17;;;;;;;10.20;7.77;;;20.90;99.90;;;;;;4375417;32;20231;-62
2021/07/09 07:40:44;;;;;;;12.07;7.67;;;21.20;99.90;;;;;;4375460;32;20164;-63
2021/07/09 07:43:12;;;;;;;11.07;9.10;;;21.30;99.90;;;;;;4374623;32;20663;-63
2021/07/09 07:45:39;;;;;;;12.67;8.60;;;21.70;99.90;;;;;;4374066;32;20219;-64
2021/07/09 07:48:07;;;;;;;10.13;7.93;;;21.80;99.90;;;;;;4375207;32;20536;-62
2021/07/09 07:50:34;;;;;;;12.83;9.20;;;22.00;99.90;;;;;;4375668;32;20580;-63
2021/07/09 07:53:01;;;;;;;12.03;8.60;;;22.20;99.90;;;;;;4374952;32;20652;-63
2021/07/09 07:55:28;;;;;;;11.43;8.67;;;22.50;99.90;;;;;;4374118;32;20168;-63
2021/07/09 07:57:55;;;;;;;10.93;8.30;;;23.00;99.90;;;;;;4376076;32;20608;-61
2021/07/09 08:00:23;;;;;;;11.10;8.40;;;23.60;99.90;;;;;;4374456;32;20160;-62
2021/07/09 08:02:50;;;;;;;9.77;8.17;;;24.40;99.50;;;;;;4374323;32;20196;-64
2021/07/09 08:05:17;;;;;;;11.93;10.37;;;25.60;97.30;;;;;;4374136;32;20168;-66
2021/07/09 08:07:44;;;;;;;12.77;9.63;;;25.90;95.50;;;;;;4374450;32;20174;-64
2021/07/09 08:10:12;;;;;;;10.55;8.23;;;27.20;95.50;;;;;;4375170;32;20185;-64
2021/07/09 08:12:39;;;;;;;13.13;8.50;;;29.00;92.70;;;;;;4374239;32;20156;-64
2021/07/09 08:15:07;;;;;;;9.93;7.40;;;33.20;85.20;;;;;;4374904;32;20155;-64
2021/07/09 08:17:35;;;;;;;8.48;7.40;;;36.60;69.60;;;;;;4374311;32;20160;-63
2021/07/09 08:20:03;;;;;;;8.63;7.22;;;40.00;56.90;;;;;;4374726;32;20160;-64
2021/07/09 08:22:30;;;;;;;6.97;6.22;;;41.70;51.20;;;;;;4374284;32;20195;-64
2021/07/09 08:24:57;;;;;;;7.50;6.75;;;42.90;47.40;;;;;;4375026;32;20172;-64
2021/07/09 08:27:24;;;;;;;8.18;6.47;;;43.10;45.60;;;;;;4372844;32;20179;-63
2021/07/09 08:29:50;;;;;;;8.00;7.20;;;43.50;43.80;;;;;;4374676;32;20514;-63
2021/07/09 08:32:17;;;;;;;10.30;7.15;;;44.70;42.40;;;;;;4375046;32;20167;-64
2021/07/09 08:34:45;;;;;;;7.97;6.87;;;44.90;40.80;;;;;;4374349;32;20163;-65
2021/07/09 08:37:12;;;;;;;9.77;6.62;;;43.30;41.00;;;;;;4374263;32;20216;-64
2021/07/09 08:39:39;;;;;;;8.60;6.32;;;43.00;41.70;;;;;;4373795;32;20152;-64
2021/07/09 08:42:06;;;;;;;9.38;8.43;;;41.90;41.80;;;;;;4375247;32;20168;-65
2021/07/09 08:44:33;;;;;;;10.80;8.13;;;41.50;41.80;;;;;;4373088;32;20249;-65
2021/07/09 08:47:00;;;;;;;9.15;8.00;;;41.50;42.50;;;;;;4374881;32;20599;-64
2021/07/09 08:49:27;;;;;;;10.95;9.15;;;41.80;42.30;;;;;;4374216;32;20298;-66
2021/07/09 08:51:55;;;;;;;11.95;10.27;;;41.60;41.60;;;;;;4374568;32;20165;-64
2021/07/09 08:54:22;;;;;;;10.02;9.00;;;42.60;41.00;;;;;;4371958;32;20607;-65
2021/07/09 08:56:51;;;;;;;12.07;9.77;;;41.00;41.60;;;;;;4376134;32;20156;-64
2021/07/09 08:59:19;;;;;;;10.98;9.45;;;38.10;44.50;;;;;;4373270;32;20157;-65
2021/07/09 09:01:51;;;;;;;11.25;9.73;;;36.50;45.90;;;;;;4374710;32;20531;-65
2021/07/09 09:04:25;;;;;;;16.35;12.35;;;34.50;47.40;;;;;;4371330;32;20160;-63
2021/07/09 09:07:04;;;;;;;13.65;9.07;;;33.20;50.30;;;;;;4373954;32;20215;-64
2021/07/09 09:09:32;;;;;;;10.57;8.93;;;38.30;48.00;;;;;;4372745;32;20168;-65
2021/07/09 09:12:01;;;;;;;10.00;8.70;;;41.70;42.50;;;;;;4368340;32;20161;-63
2021/07/09 09:14:28;;;;;;;9.77;8.77;;;39.70;42.80;;;;;;4370037;32;20213;-65
2021/07/09 09:16:55;;;;;;;10.85;9.73;;;36.40;45.10;;;;;;4377213;32;20230;-65
2021/07/09 09:19:23;;;;;;;12.65;11.02;;;35.90;48.20;;;;;;4376895;32;20168;-65
2021/07/09 09:22:13;;;;;;;11.73;10.55;;;34.70;47.10;;;;;;4377357;32;20206;-64
2021/07/09 09:24:40;;;;;;;12.00;10.73;;;31.60;51.10;;;;;;4375742;32;20562;-64
2021/07/09 09:27:20;;;;;;;10.50;8.63;;;34.90;50.80;;;;;;4377800;32;20168;-64
2021/07/09 09:29:47;;;;;;;7.90;6.80;;;40.50;43.80;;;;;;4376980;32;20227;-64
2021/07/09 09:32:15;;;;;;;8.90;7.12;;;43.90;41.30;;;;;;4376746;32;20469;-64
2021/07/09 09:34:43;;;;;;;7.85;6.60;;;46.70;38.80;;;;;;4377484;32;20241;-65
2021/07/09 09:37:14;;;;;;;9.07;7.70;;;46.20;37.10;;;;;;4377023;32;20164;-63
2021/07/09 09:39:42;;;;;;;9.43;8.43;;;41.30;39.30;;;;;;4375352;32;20160;-64
2021/07/09 09:42:18;;;;;;;10.80;9.27;;;40.70;42.00;;;;;;4366702;32;20261;-63
2021/07/09 09:44:46;;;;;;;10.27;8.23;;;44.10;39.60;;;;;;4376451;32;20195;-67
2021/07/09 09:47:15;;;;;;;9.43;7.87;;;47.00;36.50;;;;;;4377014;32;20183;-65
2021/07/09 09:49:44;;;;;;;13.05;10.73;;;44.00;36.10;;;;;;4377501;32;20203;-64
2021/07/09 09:52:12;;;;;;;15.55;11.02;;;38.30;40.40;;;;;;4377576;32;20149;-63
2021/07/09 09:54:39;;;;;;;12.52;11.25;;;33.80;46.10;;;;;;4377565;32;20602;-63
2021/07/09 09:57:15;;;;;;;16.95;11.55;;;32.30;50.00;;;;;;4375542;32;20160;-62
2021/07/09 09:59:45;;;;;;;10.05;8.43;;;31.80;50.20;;;;;;4377334;32;20575;-64
2021/07/09 10:02:13;;;;;;;9.82;8.55;;;31.10;51.80;;;;;;4377430;32;20202;-64
2021/07/09 10:04:40;;;;;;;10.95;9.35;;;29.80;52.90;;;;;;4377707;32;20216;-65
2021/07/09 10:07:07;;;;;;;12.25;10.13;;;28.80;55.40;;;;;;4365154;32;20217;-64
2021/07/09 10:09:36;;;;;;;12.70;8.85;;;28.30;56.30;;;;;;4362544;32;20188;-63
2021/07/09 10:12:04;;;;;;;13.40;9.88;;;28.20;57.50;;;;;;4362429;32;20148;-64
2021/07/09 10:14:33;;;;;;;11.12;9.18;;;27.90;57.70;;;;;;4363038;32;20144;-63
2021/07/09 10:17:02;;;;;;;13.52;10.88;;;27.60;59.10;;;;;;4364298;32;20446;-64
2021/07/09 10:19:35;;;;;;;13.45;10.30;;;26.90;60.80;;;;;;4362535;32;20148;-62
2021/07/09 10:22:02;;;;;;;14.15;9.88;;;26.20;62.90;;;;;;4362512;32;20164;-65
2021/07/09 10:24:30;;;;;;;10.88;9.50;;;25.60;65.70;;;;;;4361963;33;20204;-63
2021/07/09 10:26:58;;;;;;;10.63;7.47;;;25.70;68.60;;;;;;4363884;32;20152;-64
2021/07/09 10:29:28;;;;;;;10.05;7.93;;;25.90;68.20;;;;;;4363986;32;20171;-66
2021/07/09 10:31:56;;;;;;;9.63;7.05;;;26.00;67.30;;;;;;4371066;32;20183;-66
2021/07/09 10:34:37;;;;;;;9.05;7.62;;;26.10;67.30;;;;;;4365316;32;20589;-65
2021/07/09 10:37:08;;;;;;;13.35;10.13;;;26.20;68.90;;;;;;4370819;32;20196;-66
2021/07/09 10:39:42;;;;;;;13.48;10.15;;;26.20;69.40;;;;;;4377971;32;20262;-65
2021/07/09 10:42:30;;;;;;;14.85;11.12;;;26.00;70.00;;;;;;4375354;32;20152;-65
2021/07/09 10:45:16;;;;;;;13.05;9.02;;;25.90;71.40;;;;;;4364549;32;20191;-65
2021/07/09 10:47:53;;;;;;;12.52;7.43;;;26.00;73.20;;;;;;4374480;32;20153;-64
2021/07/09 10:50:43;;;;;;;8.40;5.87;;;26.00;71.30;;;;;;4376670;32;20148;-64
2021/07/09 10:53:25;;;;;;;5.75;5.22;;;25.90;70.10;;;;;;4374526;32;20214;-65
2021/07/09 10:56:00;;;;;;;7.75;6.87;;;25.80;71.20;;;;;;4376661;32;20518;-64
2021/07/09 10:58:32;;;;;;;9.07;6.72;;;25.80;72.30;;;;;;4375030;32;20176;-65
2021/07/09 11:01:09;;;;;;;9.43;7.70;;;25.80;70.90;;;;;;4376762;32;20136;-64
2021/07/09 11:03:38;;;;;;;7.97;6.70;;;25.50;72.80;;;;;;4376716;32;20140;-64
2021/07/09 11:06:07;;;;;;;11.02;7.45;;;25.40;73.40;;;;;;4377101;32;20570;-65
2021/07/09 11:09:01;;;;;;;13.95;8.02;;;25.20;74.20;;;;;;4375468;32;20175;-67
2021/07/09 11:11:47;;;;;;;12.23;8.88;;;25.20;75.70;;;;;;4371479;32;20140;-63
2021/07/09 11:14:17;;;;;;;8.40;6.82;;;25.60;75.50;;;;;;4376055;32;20153;-64
2021/07/09 11:16:45;;;;;;;9.00;6.62;;;25.80;75.80;;;;;;4375563;32;20171;-66
2021/07/09 11:19:18;;;;;;;10.30;7.68;;;25.60;74.70;;;;;;4374611;32;20640;-66
2021/07/09 11:22:07;;;;;;;9.95;7.45;;;25.20;76.20;;;;;;4376556;32;20137;-65
2021/07/09 11:24:43;;;;;;;7.90;6.70;;;25.40;76.90;;;;;;4376149;32;20141;-64
2021/07/09 11:27:11;;;;;;;7.80;5.78;;;25.60;75.50;;;;;;4375517;32;20198;-65
2021/07/09 11:29:41;;;;;;;7.05;5.62;;;25.80;73.40;;;;;;4375723;32;20598;-65
2021/07/09 11:32:10;;;;;;;13.40;6.28;;;25.60;73.10;;;;;;4375925;32;20178;-65
2021/07/09 11:34:40;;;;;;;9.13;6.57;;;25.60;75.50;;;;;;4376293;32;20148;-65
2021/07/09 11:37:09;;;;;;;9.10;6.35;;;25.80;75.80;;;;;;4360754;32;20561;-64
2021/07/09 11:39:41;;;;;;;8.95;6.15;;;25.90;76.50;;;;;;4361401;32;20161;-65
2021/07/09 11:42:09;;;;;;;6.95;5.60;;;25.90;76.20;;;;;;4374602;32;20148;-65
2021/07/09 11:44:43;;;;;;;6.05;4.12;;;25.80;74.20;;;;;;4377365;32;20603;-65
2021/07/09 11:47:12;;;;;;;4.62;4.20;;;25.80;74.80;;;;;;4375553;32;20565;-66
2021/07/09 11:49:41;;;;;;;6.72;5.05;;;25.70;74.40;;;;;;4376969;32;20468;-65
2021/07/09 11:52:11;;;;;;;6.20;5.00;;;25.80;73.00;;;;;;4375659;32;20161;-66
2021/07/09 11:54:39;;;;;;;9.85;6.62;;;26.20;74.10;;;;;;4376071;32;20156;-65
2021/07/09 11:57:09;;;;;;;11.43;7.05;;;26.70;74.60;;;;;;4375120;32;20191;-66
2021/07/09 11:59:44;;;;;;;8.45;7.05;;;27.00;72.20;;;;;;4368343;32;20524;-66
2021/07/09 12:02:14;;;;;;;11.12;6.70;;;27.00;71.30;;;;;;4365255;32;20244;-67
2021/07/09 12:04:43;;;;;;;7.50;6.78;;;26.50;73.10;;;;;;4375262;32;20160;-64
2021/07/09 12:07:27;;;;;;;8.32;6.10;;;26.10;73.80;;;;;;4377310;32;20172;-65
2021/07/09 12:09:57;;;;;;;6.50;5.80;;;25.90;74.40;;;;;;4373373;32;20186;-66
2021/07/09 12:12:26;;;;;;;9.18;7.07;;;25.60;75.80;;;;;;4375842;32;20159;-65
2021/07/09 12:14:57;;;;;;;6.70;6.10;;;25.60;76.20;;;;;;4375460;32;20483;-65
2021/07/09 12:17:26;;;;;;;6.45;5.72;;;25.60;76.00;;;;;;4375227;32;20171;-66
2021/07/09 12:19:58;;;;;;;8.27;5.40;;;25.60;75.10;;;;;;4360808;32;20218;-65
2021/07/09 12:22:29;;;;;;;10.43;5.80;;;25.70;75.70;;;;;;4377777;32;20156;-66
2021/07/09 12:24:57;;;;;;;7.03;5.78;;;25.80;75.90;;;;;;4388766;32;20525;-66
2021/07/09 12:27:24;;;;;;;7.10;5.72;;;25.80;75.00;;;;;;4390291;32;20162;-66
2021/07/09 12:29:51;;;;;;;9.93;6.90;;;25.60;74.10;;;;;;4369655;32;20164;-67
2021/07/09 12:32:20;;;;;;;8.52;6.25;;;25.50;76.60;;;;;;4360625;33;20199;-65
2021/07/09 12:34:48;;;;;;;9.73;7.78;;;25.60;77.00;;;;;;4372245;32;20602;-67
2021/07/09 12:37:22;;;;;;;10.00;6.20;;;25.80;75.10;;;;;;4390366;32;20152;-66
2021/07/09 12:39:49;;;;;;;7.95;6.72;;;25.90;77.40;;;;;;4372765;32;20195;-66
2021/07/09 12:42:22;;;;;;;6.62;5.78;;;26.00;75.60;;;;;;4363881;32;20259;-64
2021/07/09 12:45:00;;;;;;;7.22;5.50;;;26.20;77.30;;;;;;4364220;32;20159;-67